Garber, Oklahoma
Current Conditions -  °F | °C
As of 1:50 PM on Monday 24 Nov 2014 (Local Time) from KWDG Reporting Station
Few Clouds Few Clouds  
Wind Chill: 57°   Ceiling: Unl
Heat Index: 57°   Visibility: 10mi
Dew Point: 23°   Wind: 21mph
Humidity: 27%   Direction: 300°WNW
Pressure: 29.94"   Gusts: 29mph
Location:  36.44°N, 97.59°W
Report Text: KWDG 241950Z 30018G25KT 10SM FEW130 14/M05 A2994
Loading
Personal Weather Stations






























Interactive Weather Map New forecast layout! Learn more

10-Day Weather Forecast

Advertisements
Track Severe Weather on mobile